sensor_id;sensor_type;location;lat;lon;timestamp;pressure;altitude;pressure_sealevel;temperature;humidity
33191;BME280;19554;42.652;23.364;2023-03-14T00:01:21;94817.84;;;5.89;42.11
33191;BME280;19554;42.652;23.364;2023-03-14T00:03:47;94849.03;;;6.09;42.16
33191;BME280;19554;42.652;23.364;2023-03-14T00:06:13;94847.19;;;6.10;42.20
33191;BME280;19554;42.652;23.364;2023-03-14T00:08:40;94831.25;;;6.05;42.20
33191;BME280;19554;42.652;23.364;2023-03-14T00:13:32;94741.97;;;5.41;42.19
33191;BME280;19554;42.652;23.364;2023-03-14T00:16:02;94832.00;;;6.00;42.44
33191;BME280;19554;42.652;23.364;2023-03-14T00:18:28;94811.03;;;5.93;42.59
33191;BME280;19554;42.652;23.364;2023-03-14T00:20:53;94828.09;;;6.08;42.68
33191;BME280;19554;42.652;23.364;2023-03-14T00:23:18;94780.22;;;5.87;42.55
33191;BME280;19554;42.652;23.364;2023-03-14T00:25:44;94777.31;;;5.89;42.47
33191;BME280;19554;42.652;23.364;2023-03-14T00:28:09;94796.91;;;6.20;42.12
33191;BME280;19554;42.652;23.364;2023-03-14T00:30:37;94796.34;;;6.18;42.11
33191;BME280;19554;42.652;23.364;2023-03-14T00:33:02;94778.28;;;6.10;42.15
33191;BME280;19554;42.652;23.364;2023-03-14T00:35:27;94760.97;;;5.97;42.29
33191;BME280;19554;42.652;23.364;2023-03-14T00:37:53;94786.25;;;6.10;42.71
33191;BME280;19554;42.652;23.364;2023-03-14T00:40:18;94766.66;;;5.79;43.11
33191;BME280;19554;42.652;23.364;2023-03-14T00:42:44;94779.84;;;5.74;42.85
33191;BME280;19554;42.652;23.364;2023-03-14T00:45:09;94776.56;;;5.61;43.28
33191;BME280;19554;42.652;23.364;2023-03-14T00:47:35;94771.91;;;5.41;43.30
33191;BME280;19554;42.652;23.364;2023-03-14T00:50:00;94776.59;;;5.34;43.97
33191;BME280;19554;42.652;23.364;2023-03-14T00:52:26;94722.72;;;4.91;43.59
33191;BME280;19554;42.652;23.364;2023-03-14T00:54:51;94788.63;;;5.20;43.57
33191;BME280;19554;42.652;23.364;2023-03-14T00:57:17;94740.13;;;4.87;43.69
33191;BME280;19554;42.652;23.364;2023-03-14T00:59:42;94781.69;;;5.14;44.29
33191;BME280;19554;42.652;23.364;2023-03-14T01:02:07;94782.47;;;5.14;44.28
33191;BME280;19554;42.652;23.364;2023-03-14T01:04:33;94782.22;;;5.16;44.74
33191;BME280;19554;42.652;23.364;2023-03-14T01:06:59;94665.28;;;4.60;44.73
33191;BME280;19554;42.652;23.364;2023-03-14T01:09:25;94740.75;;;5.21;44.83
33191;BME280;19554;42.652;23.364;2023-03-14T01:11:50;94772.97;;;5.45;44.53
33191;BME280;19554;42.652;23.364;2023-03-14T01:14:15;94766.09;;;5.44;44.31
33191;BME280;19554;42.652;23.364;2023-03-14T01:16:41;94668.16;;;4.85;44.43
33191;BME280;19554;42.652;23.364;2023-03-14T01:19:06;94694.31;;;5.09;44.19
33191;BME280;19554;42.652;23.364;2023-03-14T01:21:33;94733.44;;;5.34;44.12
33191;BME280;19554;42.652;23.364;2023-03-14T01:24:01;94759.91;;;5.61;44.12
33191;BME280;19554;42.652;23.364;2023-03-14T01:26:29;94755.09;;;5.58;43.83
33191;BME280;19554;42.652;23.364;2023-03-14T01:28:56;94748.69;;;5.54;43.47
33191;BME280;19554;42.652;23.364;2023-03-14T01:31:22;94747.41;;;5.56;43.72
33191;BME280;19554;42.652;23.364;2023-03-14T01:33:48;94748.44;;;5.55;43.71
33191;BME280;19554;42.652;23.364;2023-03-14T01:36:13;94740.50;;;5.55;43.74
33191;BME280;19554;42.652;23.364;2023-03-14T01:38:39;94745.50;;;5.52;43.92
33191;BME280;19554;42.652;23.364;2023-03-14T01:41:06;94731.41;;;5.41;43.81
33191;BME280;19554;42.652;23.364;2023-03-14T01:43:32;94734.63;;;5.48;44.18
33191;BME280;19554;42.652;23.364;2023-03-14T01:48:33;94736.47;;;5.47;44.60
33191;BME280;19554;42.652;23.364;2023-03-14T01:51:01;94611.44;;;4.71;44.81
33191;BME280;19554;42.652;23.364;2023-03-14T01:53:27;94733.84;;;5.47;44.67
33191;BME280;19554;42.652;23.364;2023-03-14T01:55:55;94658.25;;;4.97;44.85
33191;BME280;19554;42.652;23.364;2023-03-14T01:58:22;94727.66;;;5.37;45.16
33191;BME280;19554;42.652;23.364;2023-03-14T02:00:48;94720.94;;;5.29;45.68
33191;BME280;19554;42.652;23.364;2023-03-14T02:03:17;94724.84;;;5.21;45.95
33191;BME280;19554;42.652;23.364;2023-03-14T02:05:46;94735.66;;;5.15;45.95
33191;BME280;19554;42.652;23.364;2023-03-14T02:08:18;94729.25;;;5.11;45.95
33191;BME280;19554;42.652;23.364;2023-03-14T02:10:45;94733.19;;;5.08;46.26
33191;BME280;19554;42.652;23.364;2023-03-14T02:13:13;94727.88;;;5.03;46.31
33191;BME280;19554;42.652;23.364;2023-03-14T02:15:40;94727.88;;;5.03;46.54
33191;BME280;19554;42.652;23.364;2023-03-14T02:18:06;94699.41;;;4.88;46.62
33191;BME280;19554;42.652;23.364;2023-03-14T02:20:54;94720.16;;;5.02;47.14
33191;BME280;19554;42.652;23.364;2023-03-14T02:26:20;94719.56;;;4.94;47.23
33191;BME280;19554;42.652;23.364;2023-03-14T02:28:48;94711.69;;;4.99;46.86
33191;BME280;19554;42.652;23.364;2023-03-14T02:31:14;94717.03;;;5.05;46.63
33191;BME280;19554;42.652;23.364;2023-03-14T02:33:39;94690.19;;;4.91;46.22
33191;BME280;19554;42.652;23.364;2023-03-14T02:36:07;94713.38;;;5.11;46.05
33191;BME280;19554;42.652;23.364;2023-03-14T02:38:48;94708.41;;;5.14;46.01
33191;BME280;19554;42.652;23.364;2023-03-14T02:41:16;94684.69;;;4.97;45.84
33191;BME280;19554;42.652;23.364;2023-03-14T02:43:41;94693.19;;;4.99;45.83
33191;BME280;19554;42.652;23.364;2023-03-14T02:46:10;94709.38;;;5.08;46.04
33191;BME280;19554;42.652;23.364;2023-03-14T02:48:41;94712.19;;;4.96;45.91
33191;BME280;19554;42.652;23.364;2023-03-14T02:51:08;94677.00;;;4.69;46.10
33191;BME280;19554;42.652;23.364;2023-03-14T02:53:35;94730.66;;;4.91;46.47
33191;BME280;19554;42.652;23.364;2023-03-14T02:56:01;94731.63;;;4.85;46.44
33191;BME280;19554;42.652;23.364;2023-03-14T02:58:28;94714.56;;;4.71;46.40
33191;BME280;19554;42.652;23.364;2023-03-14T03:00:54;94728.94;;;4.80;46.64
33191;BME280;19554;42.652;23.364;2023-03-14T03:03:20;94695.34;;;4.54;46.95
33191;BME280;19554;42.652;23.364;2023-03-14T03:05:53;94721.97;;;4.69;47.28
33191;BME280;19554;42.652;23.364;2023-03-14T03:08:19;94721.97;;;4.69;47.43
33191;BME280;19554;42.652;23.364;2023-03-14T03:10:45;94724.59;;;4.69;47.42
33191;BME280;19554;42.652;23.364;2023-03-14T03:13:11;94732.56;;;4.74;47.56
33191;BME280;19554;42.652;23.364;2023-03-14T03:15:36;94735.72;;;4.71;47.73
33191;BME280;19554;42.652;23.364;2023-03-14T03:18:01;94702.16;;;4.49;47.86
33191;BME280;19554;42.652;23.364;2023-03-14T03:20:27;94725.03;;;4.61;47.96
33191;BME280;19554;42.652;23.364;2023-03-14T03:22:52;94731.09;;;4.61;47.70
33191;BME280;19554;42.652;23.364;2023-03-14T03:25:18;94604.44;;;3.84;47.75
33191;BME280;19554;42.652;23.364;2023-03-14T03:27:43;94721.88;;;4.64;47.56
33191;BME280;19554;42.652;23.364;2023-03-14T03:30:09;94694.16;;;4.44;47.36
33191;BME280;19554;42.652;23.364;2023-03-14T03:32:35;94723.91;;;4.57;47.62
33191;BME280;19554;42.652;23.364;2023-03-14T03:35:02;94691.78;;;4.43;47.66
33191;BME280;19554;42.652;23.364;2023-03-14T03:37:30;94725.03;;;4.61;47.46
33191;BME280;19554;42.652;23.364;2023-03-14T03:39:55;94712.78;;;4.55;47.66
33191;BME280;19554;42.652;23.364;2023-03-14T03:42:21;94663.16;;;4.13;47.87
33191;BME280;19554;42.652;23.364;2023-03-14T03:44:46;94696.94;;;4.33;48.22
33191;BME280;19554;42.652;23.364;2023-03-14T03:47:12;94718.88;;;4.33;48.22
33191;BME280;19554;42.652;23.364;2023-03-14T03:49:37;94738.78;;;4.41;48.33
33191;BME280;19554;42.652;23.364;2023-03-14T03:52:03;94723.06;;;4.29;48.58
33191;BME280;19554;42.652;23.364;2023-03-14T03:54:28;94651.09;;;3.78;48.57
33191;BME280;19554;42.652;23.364;2023-03-14T03:56:54;94733.63;;;4.29;48.53
33191;BME280;19554;42.652;23.364;2023-03-14T03:59:20;94727.25;;;4.25;48.50
33191;BME280;19554;42.652;23.364;2023-03-14T04:01:46;94686.72;;;3.97;48.59
33191;BME280;19554;42.652;23.364;2023-03-14T04:04:11;94660.06;;;3.77;49.11
33191;BME280;19554;42.652;23.364;2023-03-14T04:06:37;94745.78;;;4.30;49.22
33191;BME280;19554;42.652;23.364;2023-03-14T04:09:03;94614.78;;;3.46;49.63
33191;BME280;19554;42.652;23.364;2023-03-14T04:11:28;94736.69;;;4.21;49.82
33191;BME280;19554;42.652;23.364;2023-03-14T04:13:53;94742.84;;;4.26;49.54
33191;BME280;19554;42.652;23.364;2023-03-14T04:16:22;94743.09;;;4.25;49.55
33191;BME280;19554;42.652;23.364;2023-03-14T04:18:48;94734.59;;;4.23;49.53
33191;BME280;19554;42.652;23.364;2023-03-14T04:21:14;94635.38;;;3.66;49.35
33191;BME280;19554;42.652;23.364;2023-03-14T04:23:39;94729.44;;;4.33;49.02
33191;BME280;19554;42.652;23.364;2023-03-14T04:26:05;94710.28;;;4.21;48.96
33191;BME280;19554;42.652;23.364;2023-03-14T04:28:30;94721.09;;;4.41;48.93
33191;BME280;19554;42.652;23.364;2023-03-14T04:30:56;94713.22;;;4.46;48.55
33191;BME280;19554;42.652;23.364;2023-03-14T04:33:21;94651.88;;;4.17;48.41
33191;BME280;19554;42.652;23.364;2023-03-14T04:35:47;94706.41;;;4.50;48.08
33191;BME280;19554;42.652;23.364;2023-03-14T04:38:15;94706.84;;;4.42;48.10
33191;BME280;19554;42.652;23.364;2023-03-14T04:40:41;94710.94;;;4.33;48.11
33191;BME280;19554;42.652;23.364;2023-03-14T04:43:07;94610.56;;;3.67;48.33
33191;BME280;19554;42.652;23.364;2023-03-14T04:45:33;94688.91;;;4.22;48.67
33191;BME280;19554;42.652;23.364;2023-03-14T04:47:59;94700.34;;;4.28;48.78
33191;BME280;19554;42.652;23.364;2023-03-14T04:50:24;94696.34;;;4.25;48.59
33191;BME280;19554;42.652;23.364;2023-03-14T04:52:49;94694.44;;;4.21;48.94
33191;BME280;19554;42.652;23.364;2023-03-14T04:55:15;94678.59;;;4.21;49.66
33191;BME280;19554;42.652;23.364;2023-03-14T04:57:40;94686.97;;;4.40;49.13
33191;BME280;19554;42.652;23.364;2023-03-14T05:00:06;94617.44;;;4.12;48.52
33191;BME280;19554;42.652;23.364;2023-03-14T05:02:32;94679.66;;;4.69;48.59
33191;BME280;19554;42.652;23.364;2023-03-14T05:04:58;94675.00;;;4.81;48.45
33191;BME280;19554;42.652;23.364;2023-03-14T05:07:23;94683.31;;;4.90;47.82
33191;BME280;19554;42.652;23.364;2023-03-14T05:09:48;94639.41;;;4.62;47.67
33191;BME280;19554;42.652;23.364;2023-03-14T05:12:14;94676.84;;;4.81;47.68
33191;BME280;19554;42.652;23.364;2023-03-14T05:14:39;94685.59;;;4.81;47.80
33191;BME280;19554;42.652;23.364;2023-03-14T05:17:05;94681.44;;;4.90;47.67
33191;BME280;19554;42.652;23.364;2023-03-14T05:19:30;94668.06;;;5.02;47.78
33191;BME280;19554;42.652;23.364;2023-03-14T05:21:56;94676.22;;;5.28;47.06
33191;BME280;19554;42.652;23.364;2023-03-14T05:24:21;94636.25;;;5.24;46.55
33191;BME280;19554;42.652;23.364;2023-03-14T05:26:47;94677.91;;;5.76;46.25
33191;BME280;19554;42.652;23.364;2023-03-14T05:29:12;94677.03;;;6.03;45.50
33191;BME280;19554;42.652;23.364;2023-03-14T05:31:37;94680.06;;;6.27;44.98
33191;BME280;19554;42.652;23.364;2023-03-14T05:34:03;94658.09;;;6.31;44.96
33191;BME280;19554;42.652;23.364;2023-03-14T05:36:28;94671.19;;;6.63;47.26
33191;BME280;19554;42.652;23.364;2023-03-14T05:38:54;94655.34;;;6.94;46.60
33191;BME280;19554;42.652;23.364;2023-03-14T05:41:19;94669.44;;;7.20;44.95
33191;BME280;19554;42.652;23.364;2023-03-14T05:43:44;94662.56;;;7.40;44.20
33191;BME280;19554;42.652;23.364;2023-03-14T05:46:10;94669.97;;;7.58;43.63
33191;BME280;19554;42.652;23.364;2023-03-14T05:48:35;94671.56;;;7.79;43.54
33191;BME280;19554;42.652;23.364;2023-03-14T05:51:01;94676.84;;;7.95;43.44
33191;BME280;19554;42.652;23.364;2023-03-14T05:53:27;94671.00;;;7.72;42.62
33191;BME280;19554;42.652;23.364;2023-03-14T05:55:55;94578.13;;;7.26;43.07
33191;BME280;19554;42.652;23.364;2023-03-14T05:58:21;94670.44;;;8.11;41.74
33191;BME280;19554;42.652;23.364;2023-03-14T06:00:47;94672.03;;;8.07;42.04
33191;BME280;19554;42.652;23.364;2023-03-14T06:03:13;94665.09;;;8.16;41.84
33191;BME280;19554;42.652;23.364;2023-03-14T06:05:38;94656.53;;;8.29;43.08
33191;BME280;19554;42.652;23.364;2023-03-14T06:08:04;94672.34;;;8.75;42.84
33191;BME280;19554;42.652;23.364;2023-03-14T06:10:29;94660.78;;;8.41;41.69
33191;BME280;19554;42.652;23.364;2023-03-14T06:12:55;94672.34;;;8.75;41.86
33191;BME280;19554;42.652;23.364;2023-03-14T06:15:20;94659.09;;;8.60;41.30
33191;BME280;19554;42.652;23.364;2023-03-14T06:17:46;94656.88;;;8.83;40.60
33191;BME280;19554;42.652;23.364;2023-03-14T06:20:12;94631.53;;;8.36;40.43
33191;BME280;19554;42.652;23.364;2023-03-14T06:22:37;94656.03;;;8.27;41.03
33191;BME280;19554;42.652;23.364;2023-03-14T06:25:04;94668.81;;;8.15;41.76
33191;BME280;19554;42.652;23.364;2023-03-14T06:27:29;94591.78;;;7.95;40.73
33191;BME280;19554;42.652;23.364;2023-03-14T06:29:55;94670.56;;;8.50;40.54
33191;BME280;19554;42.652;23.364;2023-03-14T06:32:20;94661.91;;;8.09;42.17
33191;BME280;19554;42.652;23.364;2023-03-14T06:34:46;94677.28;;;8.38;40.99
33191;BME280;19554;42.652;23.364;2023-03-14T06:37:12;94671.91;;;8.53;40.58
33191;BME280;19554;42.652;23.364;2023-03-14T06:39:37;94678.09;;;8.38;41.15
33191;BME280;19554;42.652;23.364;2023-03-14T06:42:04;94673.88;;;8.12;41.59
33191;BME280;19554;42.652;23.364;2023-03-14T06:44:29;94670.41;;;8.16;41.02
33191;BME280;19554;42.652;23.364;2023-03-14T06:46:55;94662.84;;;8.59;40.28
33191;BME280;19554;42.652;23.364;2023-03-14T06:49:20;94636.53;;;8.52;40.46
33191;BME280;19554;42.652;23.364;2023-03-14T06:51:46;94651.66;;;9.07;40.10
33191;BME280;19554;42.652;23.364;2023-03-14T06:54:11;94637.28;;;9.42;38.75
33191;BME280;19554;42.652;23.364;2023-03-14T06:56:37;94559.75;;;9.14;39.31
33191;BME280;19554;42.652;23.364;2023-03-14T06:59:03;94641.03;;;9.99;37.65
33191;BME280;19554;42.652;23.364;2023-03-14T07:01:30;94638.03;;;9.77;37.23
33191;BME280;19554;42.652;23.364;2023-03-14T07:03:57;94619.06;;;9.54;37.51
33191;BME280;19554;42.652;23.364;2023-03-14T07:06:23;94637.94;;;9.87;36.49
33191;BME280;19554;42.652;23.364;2023-03-14T07:08:48;94636.56;;;9.65;35.69
33191;BME280;19554;42.652;23.364;2023-03-14T07:11:14;94526.31;;;8.64;36.88
33191;BME280;19554;42.652;23.364;2023-03-14T07:13:39;94605.81;;;9.15;36.88
33191;BME280;19554;42.652;23.364;2023-03-14T07:16:06;94623.97;;;9.08;36.98
33191;BME280;19554;42.652;23.364;2023-03-14T07:18:31;94570.56;;;8.94;37.50
33191;BME280;19554;42.652;23.364;2023-03-14T07:20:57;94619.81;;;9.25;37.31
33191;BME280;19554;42.652;23.364;2023-03-14T07:23:22;94609.41;;;9.29;36.48
33191;BME280;19554;42.652;23.364;2023-03-14T07:25:48;94569.13;;;8.67;37.30
33191;BME280;19554;42.652;23.364;2023-03-14T07:28:13;94619.81;;;9.31;37.18
33191;BME280;19554;42.652;23.364;2023-03-14T07:30:38;94616.91;;;9.56;36.89
33191;BME280;19554;42.652;23.364;2023-03-14T07:33:04;94609.19;;;9.84;36.40
33191;BME280;19554;42.652;23.364;2023-03-14T07:35:29;94611.97;;;10.21;36.08
33191;BME280;19554;42.652;23.364;2023-03-14T07:37:54;94612.19;;;10.49;35.22
33191;BME280;19554;42.652;23.364;2023-03-14T07:40:20;94605.44;;;10.76;35.41
33191;BME280;19554;42.652;23.364;2023-03-14T07:42:45;94596.44;;;10.72;34.65
33191;BME280;19554;42.652;23.364;2023-03-14T07:45:11;94600.03;;;10.62;35.08
33191;BME280;19554;42.652;23.364;2023-03-14T07:47:36;94601.16;;;10.56;35.38
33191;BME280;19554;42.652;23.364;2023-03-14T07:50:04;94594.69;;;10.62;34.63
33191;BME280;19554;42.652;23.364;2023-03-14T07:52:29;94584.94;;;10.52;34.94
33191;BME280;19554;42.652;23.364;2023-03-14T07:54:55;94580.78;;;10.46;34.94
33191;BME280;19554;42.652;23.364;2023-03-14T07:57:20;94585.59;;;10.63;35.51
33191;BME280;19554;42.652;23.364;2023-03-14T07:59:46;94591.91;;;10.91;34.30
33191;BME280;19554;42.652;23.364;2023-03-14T08:02:12;94510.72;;;10.35;34.85
33191;BME280;19554;42.652;23.364;2023-03-14T08:04:39;94589.13;;;10.96;34.50
33191;BME280;19554;42.652;23.364;2023-03-14T08:07:04;94591.81;;;10.77;33.91
33191;BME280;19554;42.652;23.364;2023-03-14T08:09:29;94592.81;;;11.00;34.14
33191;BME280;19554;42.652;23.364;2023-03-14T08:11:55;94585.09;;;10.80;34.01
33191;BME280;19554;42.652;23.364;2023-03-14T08:14:20;94589.13;;;10.96;34.48
33191;BME280;19554;42.652;23.364;2023-03-14T08:16:46;94589.97;;;11.10;33.68
33191;BME280;19554;42.652;23.364;2023-03-14T08:19:11;94589.41;;;11.13;34.17
33191;BME280;19554;42.652;23.364;2023-03-14T08:21:36;94553.56;;;10.63;34.21
33191;BME280;19554;42.652;23.364;2023-03-14T08:24:02;94590.44;;;10.80;34.37
33191;BME280;19554;42.652;23.364;2023-03-14T08:26:27;94590.44;;;10.99;34.83
33191;BME280;19554;42.652;23.364;2023-03-14T08:28:53;94585.09;;;11.31;34.44
33191;BME280;19554;42.652;23.364;2023-03-14T08:31:18;94581.69;;;11.45;33.63
33191;BME280;19554;42.652;23.364;2023-03-14T08:33:44;94573.63;;;11.63;33.36
33191;BME280;19554;42.652;23.364;2023-03-14T08:36:09;94491.16;;;10.78;33.48
33191;BME280;19554;42.652;23.364;2023-03-14T08:38:35;94567.28;;;11.27;33.27
33191;BME280;19554;42.652;23.364;2023-03-14T08:41:02;94507.66;;;10.99;33.21
33191;BME280;19554;42.652;23.364;2023-03-14T08:43:28;94558.00;;;11.38;33.24
33191;BME280;19554;42.652;23.364;2023-03-14T08:45:57;94555.28;;;11.57;32.71
33191;BME280;19554;42.652;23.364;2023-03-14T08:48:23;94557.72;;;11.86;32.64
33191;BME280;19554;42.652;23.364;2023-03-14T08:50:48;94532.97;;;11.94;31.97
33191;BME280;19554;42.652;23.364;2023-03-14T08:53:13;94551.94;;;12.34;31.28
33191;BME280;19554;42.652;23.364;2023-03-14T08:55:39;94537.06;;;12.55;30.86
33191;BME280;19554;42.652;23.364;2023-03-14T08:58:04;94517.09;;;12.25;31.00
33191;BME280;19554;42.652;23.364;2023-03-14T09:00:30;94528.53;;;12.53;31.42
33191;BME280;19554;42.652;23.364;2023-03-14T09:02:55;94530.38;;;12.67;30.59
33191;BME280;19554;42.652;23.364;2023-03-14T09:05:20;94525.72;;;12.72;30.58
33191;BME280;19554;42.652;23.364;2023-03-14T09:07:46;94516.38;;;12.70;30.61
33191;BME280;19554;42.652;23.364;2023-03-14T09:10:11;94511.22;;;12.73;30.63
33191;BME280;19554;42.652;23.364;2023-03-14T09:12:37;94439.94;;;12.41;30.26
33191;BME280;19554;42.652;23.364;2023-03-14T09:15:03;94446.81;;;12.20;30.00
33191;BME280;19554;42.652;23.364;2023-03-14T09:17:28;94502.91;;;12.39;30.14
33191;BME280;19554;42.652;23.364;2023-03-14T09:19:54;94490.94;;;12.08;30.90
33191;BME280;19554;42.652;23.364;2023-03-14T09:22:19;94486.78;;;12.02;30.54
33191;BME280;19554;42.652;23.364;2023-03-14T09:24:45;94485.03;;;12.34;30.10
33191;BME280;19554;42.652;23.364;2023-03-14T09:27:11;94477.75;;;12.62;29.01
33191;BME280;19554;42.652;23.364;2023-03-14T09:29:36;94480.47;;;12.71;29.81
33191;BME280;19554;42.652;23.364;2023-03-14T09:32:02;94465.50;;;12.70;29.43
33191;BME280;19554;42.652;23.364;2023-03-14T09:34:29;94453.69;;;12.71;29.72
33191;BME280;19554;42.652;23.364;2023-03-14T09:36:54;94463.75;;;12.88;29.42
33191;BME280;19554;42.652;23.364;2023-03-14T09:39:20;94462.00;;;12.83;29.51
33191;BME280;19554;42.652;23.364;2023-03-14T09:41:50;94454.03;;;12.33;29.62
33191;BME280;19554;42.652;23.364;2023-03-14T09:44:24;94454.31;;;12.68;29.50
33191;BME280;19554;42.652;23.364;2023-03-14T09:46:53;94428.53;;;12.72;29.76
33191;BME280;19554;42.652;23.364;2023-03-14T09:49:27;94433.50;;;12.87;29.66
33191;BME280;19554;42.652;23.364;2023-03-14T09:51:55;94426.16;;;13.01;29.95
33191;BME280;19554;42.652;23.364;2023-03-14T09:54:58;94430.56;;;12.75;29.43
33191;BME280;19554;42.652;23.364;2023-03-14T09:57:25;94352.94;;;12.30;29.83
33191;BME280;19554;42.652;23.364;2023-03-14T09:59:54;94419.50;;;12.90;30.22
33191;BME280;19554;42.652;23.364;2023-03-14T10:02:28;94420.34;;;12.77;29.83
33191;BME280;19554;42.652;23.364;2023-03-14T10:04:56;94407.28;;;12.75;30.12
33191;BME280;19554;42.652;23.364;2023-03-14T10:07:32;94411.56;;;12.85;30.51
33191;BME280;19554;42.652;23.364;2023-03-14T10:09:58;94401.66;;;12.86;30.55
33191;BME280;19554;42.652;23.364;2023-03-14T10:12:37;94407.09;;;12.72;30.80
33191;BME280;19554;42.652;23.364;2023-03-14T10:15:08;94391.38;;;12.79;30.75
33191;BME280;19554;42.652;23.364;2023-03-14T10:17:41;94389.88;;;12.95;30.95
33191;BME280;19554;42.652;23.364;2023-03-14T10:22:58;94380.09;;;12.68;31.23
33191;BME280;19554;42.652;23.364;2023-03-14T10:25:32;94367.63;;;12.86;31.34
33191;BME280;19554;42.652;23.364;2023-03-14T10:27:59;94361.25;;;12.73;31.78
33191;BME280;19554;42.652;23.364;2023-03-14T10:30:39;94351.22;;;12.79;32.19
33191;BME280;19554;42.652;23.364;2023-03-14T10:33:24;94356.16;;;12.94;32.57
33191;BME280;19554;42.652;23.364;2023-03-14T10:36:02;94348.28;;;12.89;32.61
33191;BME280;19554;42.652;23.364;2023-03-14T10:38:33;94341.72;;;12.73;32.77
33191;BME280;19554;42.652;23.364;2023-03-14T10:40:59;94336.09;;;12.83;32.63
33191;BME280;19554;42.652;23.364;2023-03-14T10:43:27;94333.28;;;12.88;32.57
33191;BME280;19554;42.652;23.364;2023-03-14T10:46:06;94312.84;;;12.92;32.72
33191;BME280;19554;42.652;23.364;2023-03-14T10:48:37;94245.78;;;12.35;33.43
33191;BME280;19554;42.652;23.364;2023-03-14T10:51:09;94293.72;;;12.85;33.53
33191;BME280;19554;42.652;23.364;2023-03-14T10:53:42;94296.66;;;13.06;32.70
33191;BME280;19554;42.652;23.364;2023-03-14T10:56:17;94286.34;;;12.91;32.50
33191;BME280;19554;42.652;23.364;2023-03-14T10:58:45;94276.06;;;12.84;33.25
33191;BME280;19554;42.652;23.364;2023-03-14T11:03:53;94266.53;;;13.00;32.66
33191;BME280;19554;42.652;23.364;2023-03-14T11:06:29;94187.72;;;12.44;32.75
33191;BME280;19554;42.652;23.364;2023-03-14T11:09:15;94249.34;;;13.01;32.66
33191;BME280;19554;42.652;23.364;2023-03-14T11:11:45;94250.16;;;13.11;32.49
33191;BME280;19554;42.652;23.364;2023-03-14T11:14:17;94240.94;;;13.34;32.04
33191;BME280;19554;42.652;23.364;2023-03-14T11:22:46;94221.06;;;13.70;31.81
33191;BME280;19554;42.652;23.364;2023-03-14T11:30:55;94200.09;;;13.55;30.87
33191;BME280;19554;42.652;23.364;2023-03-14T11:33:31;94181.00;;;13.39;31.41
33191;BME280;19554;42.652;23.364;2023-03-14T11:36:08;94181.03;;;13.47;31.72
33191;BME280;19554;42.652;23.364;2023-03-14T11:38:46;94106.44;;;13.23;31.49
33191;BME280;19554;42.652;23.364;2023-03-14T11:41:20;94054.88;;;13.00;30.92
33191;BME280;19554;42.652;23.364;2023-03-14T11:43:48;94169.16;;;13.92;31.05
33191;BME280;19554;42.652;23.364;2023-03-14T11:46:26;94164.88;;;13.99;30.28
33191;BME280;19554;42.652;23.364;2023-03-14T11:51:52;94152.38;;;14.12;30.52
33191;BME280;19554;42.652;23.364;2023-03-14T11:57:11;94139.19;;;14.28;29.75
33191;BME280;19554;42.652;23.364;2023-03-14T12:04:54;94128.72;;;14.35;29.22
33191;BME280;19554;42.652;23.364;2023-03-14T12:10:09;94104.41;;;14.40;29.78
33191;BME280;19554;42.652;23.364;2023-03-14T12:12:35;94103.41;;;14.54;29.46
33191;BME280;19554;42.652;23.364;2023-03-14T12:15:03;94108.84;;;14.36;29.29
33191;BME280;19554;42.652;23.364;2023-03-14T12:17:36;94094.72;;;14.48;29.22
33191;BME280;19554;42.652;23.364;2023-03-14T12:20:23;94089.78;;;14.59;29.13
33191;BME280;19554;42.652;23.364;2023-03-14T12:25:23;94081.09;;;14.62;29.21
33191;BME280;19554;42.652;23.364;2023-03-14T12:28:02;94075.06;;;14.65;29.39
33191;BME280;19554;42.652;23.364;2023-03-14T12:30:32;94078.66;;;14.69;28.93
33191;BME280;19554;42.652;23.364;2023-03-14T12:38:16;94057.06;;;14.86;28.67
33191;BME280;19554;42.652;23.364;2023-03-14T12:43:33;94046.66;;;14.85;28.09
33191;BME280;19554;42.652;23.364;2023-03-14T12:49:04;94035.16;;;14.76;28.47
33191;BME280;19554;42.652;23.364;2023-03-14T12:51:38;94041.06;;;14.69;27.95
33191;BME280;19554;42.652;23.364;2023-03-14T12:54:24;94028.38;;;14.57;28.27
33191;BME280;19554;42.652;23.364;2023-03-14T12:57:33;94031.44;;;14.68;28.58
33191;BME280;19554;42.652;23.364;2023-03-14T12:59:58;94029.66;;;14.72;28.83
33191;BME280;19554;42.652;23.364;2023-03-14T13:02:45;94029.53;;;14.89;28.57
33191;BME280;19554;42.652;23.364;2023-03-14T13:05:23;94020.63;;;14.98;27.57
33191;BME280;19554;42.652;23.364;2023-03-14T13:13:17;94013.22;;;14.95;27.58
33191;BME280;19554;42.652;23.364;2023-03-14T13:15:46;93998.13;;;15.02;27.46
33191;BME280;19554;42.652;23.364;2023-03-14T13:18:40;93988.22;;;15.15;27.23
33191;BME280;19554;42.652;23.364;2023-03-14T13:21:18;93976.00;;;15.17;27.00
33191;BME280;19554;42.652;23.364;2023-03-14T13:24:02;93988.03;;;15.32;26.94
33191;BME280;19554;42.652;23.364;2023-03-14T13:26:35;93975.97;;;15.38;26.82
33191;BME280;19554;42.652;23.364;2023-03-14T13:29:19;93973.41;;;15.42;26.70
33191;BME280;19554;42.652;23.364;2023-03-14T13:31:45;93960.00;;;15.21;26.32
33191;BME280;19554;42.652;23.364;2023-03-14T13:34:11;93955.75;;;15.20;26.37
33191;BME280;19554;42.652;23.364;2023-03-14T13:36:37;93961.25;;;15.24;26.36
33191;BME280;19554;42.652;23.364;2023-03-14T13:39:06;93924.56;;;15.07;26.71
33191;BME280;19554;42.652;23.364;2023-03-14T13:41:37;93933.09;;;15.21;26.72
33191;BME280;19554;42.652;23.364;2023-03-14T13:44:06;93917.28;;;15.07;26.57
33191;BME280;19554;42.652;23.364;2023-03-14T13:46:36;93915.91;;;14.89;26.80
33191;BME280;19554;42.652;23.364;2023-03-14T13:49:04;93902.75;;;14.75;26.72
33191;BME280;19554;42.652;23.364;2023-03-14T13:51:31;93923.88;;;14.98;26.75
33191;BME280;19554;42.652;23.364;2023-03-14T13:54:01;93908.75;;;14.93;26.83
33191;BME280;19554;42.652;23.364;2023-03-14T13:56:31;93916.38;;;15.03;27.04